sensor_id;sensor_type;location;lat;lon;timestamp;pressure;altitude;pressure_sealevel;temperature;humidity
24825;BME280;12910;57.690;11.974;2023-04-30T00:01:23;100610.84;;;6.13;100.00
24825;BME280;12910;57.690;11.974;2023-04-30T00:03:49;100622.94;;;6.20;100.00
24825;BME280;12910;57.690;11.974;2023-04-30T00:06:14;100633.91;;;6.18;100.00
24825;BME280;12910;57.690;11.974;2023-04-30T00:08:40;100636.19;;;6.10;100.00
24825;BME280;12910;57.690;11.974;2023-04-30T00:11:05;100639.63;;;6.12;100.00
24825;BME280;12910;57.690;11.974;2023-04-30T00:13:31;100643.06;;;6.13;100.00
24825;BME280;12910;57.690;11.974;2023-04-30T00:15:56;100616.19;;;5.97;100.00
24825;BME280;12910;57.690;11.974;2023-04-30T00:18:21;100627.13;;;5.94;100.00
24825;BME280;12910;57.690;11.974;2023-04-30T00:20:47;100642.75;;;6.03;100.00
24825;BME280;12910;57.690;11.974;2023-04-30T00:23:12;100639.06;;;5.97;100.00
24825;BME280;12910;57.690;11.974;2023-04-30T00:25:37;100644.84;;;5.92;100.00
24825;BME280;12910;57.690;11.974;2023-04-30T00:28:03;100631.41;;;5.95;100.00
24825;BME280;12910;57.690;11.974;2023-04-30T00:30:28;100643.34;;;5.98;100.00
24825;BME280;12910;57.690;11.974;2023-04-30T00:32:54;100634.34;;;5.83;100.00
24825;BME280;12910;57.690;11.974;2023-04-30T00:35:19;100659.38;;;5.95;100.00
24825;BME280;12910;57.690;11.974;2023-04-30T00:37:45;100638.81;;;5.89;100.00
24825;BME280;12910;57.690;11.974;2023-04-30T00:40:10;100662.78;;;5.96;100.00
24825;BME280;12910;57.690;11.974;2023-04-30T00:42:36;100660.03;;;5.89;100.00
24825;BME280;12910;57.690;11.974;2023-04-30T00:45:01;100666.72;;;5.87;100.00
24825;BME280;12910;57.690;11.974;2023-04-30T00:47:27;100668.41;;;5.87;100.00
24825;BME280;12910;57.690;11.974;2023-04-30T00:49:52;100669.16;;;5.84;100.00
24825;BME280;12910;57.690;11.974;2023-04-30T00:52:18;100643.13;;;5.67;100.00
24825;BME280;12910;57.690;11.974;2023-04-30T00:54:44;100659.59;;;5.77;100.00
24825;BME280;12910;57.690;11.974;2023-04-30T00:57:11;100656.66;;;5.66;100.00
24825;BME280;12910;57.690;11.974;2023-04-30T00:59:38;100663.75;;;5.75;100.00
24825;BME280;12910;57.690;11.974;2023-04-30T01:02:03;100662.75;;;5.71;100.00
24825;BME280;12910;57.690;11.974;2023-04-30T01:04:29;100658.03;;;5.58;100.00
24825;BME280;12910;57.690;11.974;2023-04-30T01:06:54;100670.22;;;5.67;100.00
24825;BME280;12910;57.690;11.974;2023-04-30T01:09:21;100650.53;;;5.61;100.00
24825;BME280;12910;57.690;11.974;2023-04-30T01:12:17;100674.50;;;5.68;100.00
24825;BME280;12910;57.690;11.974;2023-04-30T01:15:17;100680.34;;;5.65;100.00
24825;BME280;12910;57.690;11.974;2023-04-30T01:20:12;100674.03;;;5.55;100.00
24825;BME280;12910;57.690;11.974;2023-04-30T01:23:18;100687.81;;;5.60;100.00
24825;BME280;12910;57.690;11.974;2023-04-30T01:25:50;100685.13;;;5.57;100.00
24825;BME280;12910;57.690;11.974;2023-04-30T01:28:17;100670.47;;;5.50;100.00
24825;BME280;12910;57.690;11.974;2023-04-30T01:30:49;100685.91;;;5.55;100.00
24825;BME280;12910;57.690;11.974;2023-04-30T01:33:14;100690.22;;;5.57;100.00
24825;BME280;12910;57.690;11.974;2023-04-30T01:38:34;100703.88;;;5.59;100.00
24825;BME280;12910;57.690;11.974;2023-04-30T01:46:28;100706.81;;;5.48;100.00
24825;BME280;12910;57.690;11.974;2023-04-30T01:49:07;100695.53;;;5.41;100.00
24825;BME280;12910;57.690;11.974;2023-04-30T01:51:47;100682.56;;;5.35;100.00
24825;BME280;12910;57.690;11.974;2023-04-30T01:54:25;100705.75;;;5.42;100.00
24825;BME280;12910;57.690;11.974;2023-04-30T01:57:06;100685.03;;;5.32;100.00
24825;BME280;12910;57.690;11.974;2023-04-30T01:59:34;100711.72;;;5.43;100.00
24825;BME280;12910;57.690;11.974;2023-04-30T02:02:00;100713.06;;;5.35;100.00
24825;BME280;12910;57.690;11.974;2023-04-30T02:04:26;100715.44;;;5.30;100.00
24825;BME280;12910;57.690;11.974;2023-04-30T02:06:51;100707.09;;;5.33;100.00
24825;BME280;12910;57.690;11.974;2023-04-30T02:09:16;100706.38;;;5.37;100.00
24825;BME280;12910;57.690;11.974;2023-04-30T02:11:42;100707.09;;;5.33;100.00
24825;BME280;12910;57.690;11.974;2023-04-30T02:14:08;100731.81;;;5.37;100.00
24825;BME280;12910;57.690;11.974;2023-04-30T02:16:33;100737.81;;;5.39;100.00
24825;BME280;12910;57.690;11.974;2023-04-30T02:18:59;100717.88;;;5.27;100.00
24825;BME280;12910;57.690;11.974;2023-04-30T02:21:24;100717.25;;;5.33;100.00
24825;BME280;12910;57.690;11.974;2023-04-30T02:23:51;100708.69;;;5.30;100.00
24825;BME280;12910;57.690;11.974;2023-04-30T02:26:16;100723.31;;;5.36;100.00
24825;BME280;12910;57.690;11.974;2023-04-30T02:28:42;100721.47;;;5.32;100.00
24825;BME280;12910;57.690;11.974;2023-04-30T02:31:07;100723.44;;;5.18;100.00
24825;BME280;12910;57.690;11.974;2023-04-30T02:33:32;100725.56;;;5.28;100.00
24825;BME280;12910;57.690;11.974;2023-04-30T02:36:01;100730.41;;;5.22;100.00
24825;BME280;12910;57.690;11.974;2023-04-30T02:38:26;100723.44;;;5.18;100.00
24825;BME280;12910;57.690;11.974;2023-04-30T02:40:52;100739.63;;;5.20;100.00
24825;BME280;12910;57.690;11.974;2023-04-30T02:43:17;100724.44;;;5.22;100.00
24825;BME280;12910;57.690;11.974;2023-04-30T02:45:43;100713.28;;;5.18;100.00
24825;BME280;12910;57.690;11.974;2023-04-30T02:48:08;100735.34;;;5.19;100.00
24825;BME280;12910;57.690;11.974;2023-04-30T02:50:33;100708.06;;;5.15;100.00
24825;BME280;12910;57.690;11.974;2023-04-30T02:52:59;100745.53;;;5.19;100.00
24825;BME280;12910;57.690;11.974;2023-04-30T02:55:24;100748.28;;;5.25;100.00
24825;BME280;12910;57.690;11.974;2023-04-30T02:57:49;100731.06;;;5.18;100.00
24825;BME280;12910;57.690;11.974;2023-04-30T03:00:15;100736.97;;;5.17;100.00
24825;BME280;12910;57.690;11.974;2023-04-30T03:02:41;100732.44;;;5.10;100.00
24825;BME280;12910;57.690;11.974;2023-04-30T03:05:07;100726.38;;;5.06;100.00
24825;BME280;12910;57.690;11.974;2023-04-30T03:07:32;100733.63;;;5.18;100.00
24825;BME280;12910;57.690;11.974;2023-04-30T03:09:58;100746.28;;;5.17;100.00
24825;BME280;12910;57.690;11.974;2023-04-30T03:12:23;100725.31;;;5.01;100.00
24825;BME280;12910;57.690;11.974;2023-04-30T03:14:48;100745.38;;;5.16;100.00
24825;BME280;12910;57.690;11.974;2023-04-30T03:17:14;100736.41;;;5.03;100.00
24825;BME280;12910;57.690;11.974;2023-04-30T03:19:39;100747.63;;;5.08;100.00
24825;BME280;12910;57.690;11.974;2023-04-30T03:22:04;100762.13;;;5.11;100.00
24825;BME280;12910;57.690;11.974;2023-04-30T03:24:30;100725.25;;;4.99;100.00
24825;BME280;12910;57.690;11.974;2023-04-30T03:26:55;100734.56;;;4.99;100.00
24825;BME280;12910;57.690;11.974;2023-04-30T03:29:20;100750.97;;;5.07;100.00
24825;BME280;12910;57.690;11.974;2023-04-30T03:31:46;100744.91;;;5.04;100.00
24825;BME280;12910;57.690;11.974;2023-04-30T03:34:11;100748.25;;;5.03;100.00
24825;BME280;12910;57.690;11.974;2023-04-30T03:36:38;100760.06;;;5.02;100.00
24825;BME280;12910;57.690;11.974;2023-04-30T03:39:03;100745.19;;;4.90;100.00
24825;BME280;12910;57.690;11.974;2023-04-30T03:41:28;100757.53;;;5.02;100.00
24825;BME280;12910;57.690;11.974;2023-04-30T03:43:54;100748.72;;;4.94;100.00
24825;BME280;12910;57.690;11.974;2023-04-30T03:46:19;100752.16;;;4.94;100.00
24825;BME280;12910;57.690;11.974;2023-04-30T03:48:46;100775.50;;;5.07;100.00
24825;BME280;12910;57.690;11.974;2023-04-30T03:51:11;100765.09;;;5.01;100.00
24825;BME280;12910;57.690;11.974;2023-04-30T03:53:37;100757.25;;;4.94;100.00
24825;BME280;12910;57.690;11.974;2023-04-30T03:56:02;100770.41;;;5.07;100.00
24825;BME280;12910;57.690;11.974;2023-04-30T03:58:29;100795.44;;;4.97;100.00
24825;BME280;12910;57.690;11.974;2023-04-30T04:00:54;100784.44;;;4.97;100.00
24825;BME280;12910;57.690;11.974;2023-04-30T04:03:20;100794.91;;;5.05;100.00
24825;BME280;12910;57.690;11.974;2023-04-30T04:05:46;100796.25;;;4.96;100.00
24825;BME280;12910;57.690;11.974;2023-04-30T04:08:11;100807.63;;;5.05;100.00
24825;BME280;12910;57.690;11.974;2023-04-30T04:10:38;100810.25;;;5.08;100.00
24825;BME280;12910;57.690;11.974;2023-04-30T04:13:04;100804.44;;;5.10;100.00
24825;BME280;12910;57.690;11.974;2023-04-30T04:15:30;100785.28;;;4.97;100.00
24825;BME280;12910;57.690;11.974;2023-04-30T04:17:56;100790.63;;;5.04;100.00
24825;BME280;12910;57.690;11.974;2023-04-30T04:20:21;100811.19;;;5.10;100.00
24825;BME280;12910;57.690;11.974;2023-04-30T04:22:46;100791.34;;;5.01;100.00
24825;BME280;12910;57.690;11.974;2023-04-30T04:25:12;100788.75;;;4.99;100.00
24825;BME280;12910;57.690;11.974;2023-04-30T04:27:38;100789.00;;;5.06;100.00
24825;BME280;12910;57.690;11.974;2023-04-30T04:30:03;100813.00;;;5.12;100.00
24825;BME280;12910;57.690;11.974;2023-04-30T04:32:29;100801.91;;;5.10;100.00
24825;BME280;12910;57.690;11.974;2023-04-30T04:34:54;100800.72;;;5.02;100.00
24825;BME280;12910;57.690;11.974;2023-04-30T04:37:21;100804.44;;;5.10;100.00
24825;BME280;12910;57.690;11.974;2023-04-30T04:39:46;100804.53;;;5.12;100.00
24825;BME280;12910;57.690;11.974;2023-04-30T04:42:13;100801.03;;;5.10;100.00
24825;BME280;12910;57.690;11.974;2023-04-30T04:44:38;100810.25;;;5.08;100.00
24825;BME280;12910;57.690;11.974;2023-04-30T04:47:05;100797.69;;;5.11;100.00
24825;BME280;12910;57.690;11.974;2023-04-30T04:49:30;100818.34;;;5.19;100.00
24825;BME280;12910;57.690;11.974;2023-04-30T04:51:56;100803.78;;;5.14;100.00
24825;BME280;12910;57.690;11.974;2023-04-30T04:54:21;100843.25;;;5.27;100.00
24825;BME280;12910;57.690;11.974;2023-04-30T04:56:46;100828.72;;;5.23;100.00
24825;BME280;12910;57.690;11.974;2023-04-30T04:59:12;100835.59;;;5.26;100.00
24825;BME280;12910;57.690;11.974;2023-04-30T05:01:37;100824.25;;;5.18;100.00
24825;BME280;12910;57.690;11.974;2023-04-30T05:04:03;100837.50;;;5.32;100.00
24825;BME280;12910;57.690;11.974;2023-04-30T05:06:29;100846.69;;;5.28;100.00
24825;BME280;12910;57.690;11.974;2023-04-30T05:08:54;100840.66;;;5.26;100.00
24825;BME280;12910;57.690;11.974;2023-04-30T05:11:20;100832.44;;;5.32;100.00
24825;BME280;12910;57.690;11.974;2023-04-30T05:13:46;100845.94;;;5.30;100.00
24825;BME280;12910;57.690;11.974;2023-04-30T05:16:12;100831.81;;;5.37;100.00
24825;BME280;12910;57.690;11.974;2023-04-30T05:18:37;100846.97;;;5.36;100.00
24825;BME280;12910;57.690;11.974;2023-04-30T05:21:03;100856.63;;;5.43;100.00
24825;BME280;12910;57.690;11.974;2023-04-30T05:23:28;100857.72;;;5.28;100.00
24825;BME280;12910;57.690;11.974;2023-04-30T05:25:54;100873.09;;;5.32;100.00
24825;BME280;12910;57.690;11.974;2023-04-30T05:28:19;100888.44;;;5.35;100.00
24825;BME280;12910;57.690;11.974;2023-04-30T05:30:45;100864.53;;;5.29;100.00
24825;BME280;12910;57.690;11.974;2023-04-30T05:33:10;100883.50;;;5.38;100.00
24825;BME280;12910;57.690;11.974;2023-04-30T05:35:36;100862.78;;;5.28;100.00
24825;BME280;12910;57.690;11.974;2023-04-30T05:38:02;100866.09;;;5.47;100.00
24825;BME280;12910;57.690;11.974;2023-04-30T05:40:28;100885.81;;;5.53;100.00
24825;BME280;12910;57.690;11.974;2023-04-30T05:42:53;100870.13;;;5.42;100.00
24825;BME280;12910;57.690;11.974;2023-04-30T05:45:19;100856.53;;;5.41;100.00
24825;BME280;12910;57.690;11.974;2023-04-30T05:47:44;100857.66;;;5.48;100.00
24825;BME280;12910;57.690;11.974;2023-04-30T05:50:10;100882.78;;;5.61;100.00
24825;BME280;12910;57.690;11.974;2023-04-30T05:52:35;100857.09;;;5.55;100.00
24825;BME280;12910;57.690;11.974;2023-04-30T05:55:00;100884.53;;;5.63;100.00
24825;BME280;12910;57.690;11.974;2023-04-30T05:57:26;100881.09;;;5.62;100.00
24825;BME280;12910;57.690;11.974;2023-04-30T05:59:51;100875.03;;;5.58;100.00
24825;BME280;12910;57.690;11.974;2023-04-30T06:02:17;100882.69;;;5.60;100.00
24825;BME280;12910;57.690;11.974;2023-04-30T06:04:43;100875.22;;;5.63;100.00
24825;BME280;12910;57.690;11.974;2023-04-30T06:07:08;100889.72;;;5.66;100.00
24825;BME280;12910;57.690;11.974;2023-04-30T06:09:33;100907.19;;;5.58;100.00
24825;BME280;12910;57.690;11.974;2023-04-30T06:11:59;100881.72;;;5.56;100.00
24825;BME280;12910;57.690;11.974;2023-04-30T06:14:26;100905.97;;;5.69;100.00
24825;BME280;12910;57.690;11.974;2023-04-30T06:16:51;100905.34;;;5.54;100.00
24825;BME280;12910;57.690;11.974;2023-04-30T06:19:17;100914.09;;;5.60;100.00
24825;BME280;12910;57.690;11.974;2023-04-30T06:21:43;100897.03;;;5.58;100.00
24825;BME280;12910;57.690;11.974;2023-04-30T06:24:08;100930.78;;;5.75;100.00
24825;BME280;12910;57.690;11.974;2023-04-30T06:26:34;100909.44;;;5.71;100.00
24825;BME280;12910;57.690;11.974;2023-04-30T06:29:00;100878.19;;;5.53;100.00
24825;BME280;12910;57.690;11.974;2023-04-30T06:31:25;100898.72;;;5.57;100.00
24825;BME280;12910;57.690;11.974;2023-04-30T06:33:51;100934.06;;;5.72;100.00
24825;BME280;12910;57.690;11.974;2023-04-30T06:36:16;100912.88;;;5.72;100.00
24825;BME280;12910;57.690;11.974;2023-04-30T06:38:42;100918.00;;;5.73;100.00
24825;BME280;12910;57.690;11.974;2023-04-30T06:41:08;100929.78;;;5.71;100.00
24825;BME280;12910;57.690;11.974;2023-04-30T06:43:33;100920.00;;;5.81;100.00
24825;BME280;12910;57.690;11.974;2023-04-30T06:45:59;100909.69;;;5.77;100.00
24825;BME280;12910;57.690;11.974;2023-04-30T06:48:25;100892.63;;;5.75;100.00
24825;BME280;12910;57.690;11.974;2023-04-30T06:50:50;100902.81;;;5.75;100.00
24825;BME280;12910;57.690;11.974;2023-04-30T06:53:16;100924.78;;;5.94;100.00
24825;BME280;12910;57.690;11.974;2023-04-30T06:55:43;100909.56;;;5.96;100.00
24825;BME280;12910;57.690;11.974;2023-04-30T06:58:08;100904.06;;;6.06;100.00
24825;BME280;12910;57.690;11.974;2023-04-30T07:00:34;100922.72;;;6.06;100.00
24825;BME280;12910;57.690;11.974;2023-04-30T07:02:59;100938.03;;;5.87;100.00
24825;BME280;12910;57.690;11.974;2023-04-30T07:05:27;100933.97;;;5.90;100.00
24825;BME280;12910;57.690;11.974;2023-04-30T07:07:53;100928.75;;;5.87;100.00
24825;BME280;12910;57.690;11.974;2023-04-30T07:10:18;100904.53;;;5.76;100.00
24825;BME280;12910;57.690;11.974;2023-04-30T07:12:44;100959.41;;;5.90;100.00
24825;BME280;12910;57.690;11.974;2023-04-30T07:15:10;100955.50;;;5.99;100.00
24825;BME280;12910;57.690;11.974;2023-04-30T07:17:35;100936.25;;;5.84;100.00
24825;BME280;12910;57.690;11.974;2023-04-30T07:20:02;100962.59;;;6.06;100.00
24825;BME280;12910;57.690;11.974;2023-04-30T07:22:29;100926.16;;;5.86;100.00
24825;BME280;12910;57.690;11.974;2023-04-30T07:24:54;100933.03;;;5.88;100.00
24825;BME280;12910;57.690;11.974;2023-04-30T07:27:20;100940.94;;;5.75;100.00
24825;BME280;12910;57.690;11.974;2023-04-30T07:29:45;100956.16;;;5.73;100.00
24825;BME280;12910;57.690;11.974;2023-04-30T07:32:10;100958.47;;;5.88;100.00
24825;BME280;12910;57.690;11.974;2023-04-30T07:34:36;100963.59;;;5.90;100.00
24825;BME280;12910;57.690;11.974;2023-04-30T07:37:02;100950.03;;;5.89;100.00
24825;BME280;12910;57.690;11.974;2023-04-30T07:39:28;100963.44;;;6.06;100.00
24825;BME280;12910;57.690;11.974;2023-04-30T07:41:53;100960.56;;;5.99;100.00
24825;BME280;12910;57.690;11.974;2023-04-30T07:44:18;101014.34;;;6.06;100.00
24825;BME280;12910;57.690;11.974;2023-04-30T07:46:45;100967.81;;;6.09;100.00
24825;BME280;12910;57.690;11.974;2023-04-30T07:49:11;100956.66;;;6.05;100.00
24825;BME280;12910;57.690;11.974;2023-04-30T07:51:36;100990.94;;;6.15;100.00
24825;BME280;12910;57.690;11.974;2023-04-30T07:54:03;100986.72;;;6.16;100.00
24825;BME280;12910;57.690;11.974;2023-04-30T07:56:29;100963.63;;;6.11;100.00
24825;BME280;12910;57.690;11.974;2023-04-30T07:58:54;100959.97;;;6.26;100.00
24825;BME280;12910;57.690;11.974;2023-04-30T08:01:20;100996.78;;;6.34;100.00
24825;BME280;12910;57.690;11.974;2023-04-30T08:03:45;100993.38;;;6.33;100.00
24825;BME280;12910;57.690;11.974;2023-04-30T08:06:10;100995.59;;;6.26;100.00
24825;BME280;12910;57.690;11.974;2023-04-30T08:08:36;100989.41;;;6.19;100.00
24825;BME280;12910;57.690;11.974;2023-04-30T08:11:02;101000.66;;;6.24;100.00
24825;BME280;12910;57.690;11.974;2023-04-30T08:13:27;101003.06;;;6.21;100.00
24825;BME280;12910;57.690;11.974;2023-04-30T08:15:53;101003.72;;;6.17;100.00
24825;BME280;12910;57.690;11.974;2023-04-30T08:18:18;101020.38;;;6.08;100.00
24825;BME280;12910;57.690;11.974;2023-04-30T08:20:43;100972.34;;;6.16;100.00
24825;BME280;12910;57.690;11.974;2023-04-30T08:23:09;101004.59;;;6.38;100.00
24825;BME280;12910;57.690;11.974;2023-04-30T08:25:34;101015.34;;;6.31;100.00
24825;BME280;12910;57.690;11.974;2023-04-30T08:28:01;101011.72;;;6.26;100.00
24825;BME280;12910;57.690;11.974;2023-04-30T08:30:26;101010.38;;;6.34;100.00
24825;BME280;12910;57.690;11.974;2023-04-30T08:32:51;101003.56;;;6.33;100.00
24825;BME280;12910;57.690;11.974;2023-04-30T08:35:17;101014.81;;;6.40;100.00
24825;BME280;12910;57.690;11.974;2023-04-30T08:37:42;101021.56;;;6.38;100.00
24825;BME280;12910;57.690;11.974;2023-04-30T08:40:08;101020.06;;;6.22;100.00
24825;BME280;12910;57.690;11.974;2023-04-30T08:42:36;100988.53;;;6.18;100.00
24825;BME280;12910;57.690;11.974;2023-04-30T08:45:07;101022.75;;;6.25;100.00
24825;BME280;12910;57.690;11.974;2023-04-30T08:47:36;101023.19;;;6.15;100.00
24825;BME280;12910;57.690;11.974;2023-04-30T08:50:02;101010.28;;;6.10;100.00
24825;BME280;12910;57.690;11.974;2023-04-30T08:52:28;101030.22;;;6.43;100.00
24825;BME280;12910;57.690;11.974;2023-04-30T08:54:56;101048.09;;;6.45;100.00
24825;BME280;12910;57.690;11.974;2023-04-30T08:57:22;101034.28;;;6.38;100.00
24825;BME280;12910;57.690;11.974;2023-04-30T08:59:48;101058.16;;;6.63;100.00
24825;BME280;12910;57.690;11.974;2023-04-30T09:02:13;101029.63;;;6.49;100.00
24825;BME280;12910;57.690;11.974;2023-04-30T09:04:39;101019.88;;;6.38;100.00
24825;BME280;12910;57.690;11.974;2023-04-30T09:07:04;101034.66;;;6.47;100.00
24825;BME280;12910;57.690;11.974;2023-04-30T09:09:37;101041.78;;;6.56;100.00
24825;BME280;12910;57.690;11.974;2023-04-30T09:12:16;101076.56;;;6.55;100.00
24825;BME280;12910;57.690;11.974;2023-04-30T09:15:09;101075.44;;;6.49;99.37
24825;BME280;12910;57.690;11.974;2023-04-30T09:17:35;101038.56;;;6.39;100.00
24825;BME280;12910;57.690;11.974;2023-04-30T09:20:07;101057.75;;;6.52;100.00
24825;BME280;12910;57.690;11.974;2023-04-30T09:22:34;101073.28;;;6.37;100.00
24825;BME280;12910;57.690;11.974;2023-04-30T09:25:01;101067.19;;;6.33;100.00
24825;BME280;12910;57.690;11.974;2023-04-30T09:27:26;101021.06;;;6.26;100.00
24825;BME280;12910;57.690;11.974;2023-04-30T09:29:51;101071.03;;;6.45;100.00
24825;BME280;12910;57.690;11.974;2023-04-30T09:32:17;101068.38;;;6.42;100.00
24825;BME280;12910;57.690;11.974;2023-04-30T09:34:43;101076.19;;;6.46;100.00
24825;BME280;12910;57.690;11.974;2023-04-30T09:37:09;101051.59;;;6.26;100.00
24825;BME280;12910;57.690;11.974;2023-04-30T09:39:45;101052.28;;;6.21;100.00
24825;BME280;12910;57.690;11.974;2023-04-30T09:42:11;101066.13;;;6.28;100.00
24825;BME280;12910;57.690;11.974;2023-04-30T09:44:38;101051.97;;;6.35;100.00
24825;BME280;12910;57.690;11.974;2023-04-30T09:47:10;101075.06;;;6.39;100.00
24825;BME280;12910;57.690;11.974;2023-04-30T09:49:37;101072.47;;;6.38;100.00
24825;BME280;12910;57.690;11.974;2023-04-30T09:52:02;101080.28;;;6.21;100.00
24825;BME280;12910;57.690;11.974;2023-04-30T09:54:29;101086.00;;;6.37;100.00
24825;BME280;12910;57.690;11.974;2023-04-30T09:56:56;101064.22;;;6.44;100.00
24825;BME280;12910;57.690;11.974;2023-04-30T09:59:28;101115.00;;;6.41;100.00
24825;BME280;12910;57.690;11.974;2023-04-30T10:02:01;101066.75;;;6.22;100.00
24825;BME280;12910;57.690;11.974;2023-04-30T10:04:48;101068.25;;;6.38;100.00
24825;BME280;12910;57.690;11.974;2023-04-30T10:07:20;101097.56;;;6.50;100.00
24825;BME280;12910;57.690;11.974;2023-04-30T10:09:59;101078.03;;;6.50;100.00
24825;BME280;12910;57.690;11.974;2023-04-30T10:12:38;101088.41;;;6.55;100.00
24825;BME280;12910;57.690;11.974;2023-04-30T10:15:12;101071.72;;;6.41;100.00
24825;BME280;12910;57.690;11.974;2023-04-30T10:17:40;101064.66;;;6.33;100.00
24825;BME280;12910;57.690;11.974;2023-04-30T10:20:08;101069.66;;;6.32;100.00
24825;BME280;12910;57.690;11.974;2023-04-30T10:22:35;101088.66;;;6.40;100.00
24825;BME280;12910;57.690;11.974;2023-04-30T10:25:01;101094.84;;;6.45;100.00
24825;BME280;12910;57.690;11.974;2023-04-30T10:27:28;101062.03;;;6.32;100.00
24825;BME280;12910;57.690;11.974;2023-04-30T10:29:53;101048.88;;;6.21;100.00
24825;BME280;12910;57.690;11.974;2023-04-30T10:32:19;101042.56;;;6.32;100.00
24825;BME280;12910;57.690;11.974;2023-04-30T10:34:59;101060.59;;;6.60;100.00
24825;BME280;12910;57.690;11.974;2023-04-30T10:37:46;101065.25;;;6.49;100.00
24825;BME280;12910;57.690;11.974;2023-04-30T10:40:13;101089.13;;;6.51;100.00
24825;BME280;12910;57.690;11.974;2023-04-30T10:42:49;101061.69;;;6.66;100.00
24825;BME280;12910;57.690;11.974;2023-04-30T10:45:15;101058.22;;;6.64;100.00
24825;BME280;12910;57.690;11.974;2023-04-30T10:47:41;101076.91;;;6.86;100.00
24825;BME280;12910;57.690;11.974;2023-04-30T10:50:07;101087.25;;;6.91;100.00
24825;BME280;12910;57.690;11.974;2023-04-30T10:52:33;101080.19;;;6.83;100.00
24825;BME280;12910;57.690;11.974;2023-04-30T10:55:03;101074.78;;;6.76;100.00
24825;BME280;12910;57.690;11.974;2023-04-30T10:57:29;101066.13;;;6.70;100.00
24825;BME280;12910;57.690;11.974;2023-04-30T11:00:18;101094.50;;;6.80;100.00
24825;BME280;12910;57.690;11.974;2023-04-30T11:02:45;101077.06;;;6.91;100.00
24825;BME280;12910;57.690;11.974;2023-04-30T11:05:14;101095.16;;;6.97;100.00
24825;BME280;12910;57.690;11.974;2023-04-30T11:07:50;101069.34;;;6.88;100.00
24825;BME280;12910;57.690;11.974;2023-04-30T11:10:20;101092.50;;;7.16;100.00
24825;BME280;12910;57.690;11.974;2023-04-30T11:12:47;101099.78;;;7.07;100.00
24825;BME280;12910;57.690;11.974;2023-04-30T11:15:19;101082.16;;;6.91;100.00
24825;BME280;12910;57.690;11.974;2023-04-30T11:17:47;101082.31;;;6.94;100.00
24825;BME280;12910;57.690;11.974;2023-04-30T11:20:14;101061.53;;;7.07;100.00
24825;BME280;12910;57.690;11.974;2023-04-30T11:22:43;101080.16;;;7.27;100.00
24825;BME280;12910;57.690;11.974;2023-04-30T11:25:10;101083.47;;;7.25;100.00
24825;BME280;12910;57.690;11.974;2023-04-30T11:27:41;101065.50;;;7.22;98.93
24825;BME280;12910;57.690;11.974;2023-04-30T11:30:11;101065.72;;;7.28;100.00
24825;BME280;12910;57.690;11.974;2023-04-30T11:32:38;101098.72;;;7.47;99.05
24825;BME280;12910;57.690;11.974;2023-04-30T11:35:04;101069.03;;;7.25;100.00
24825;BME280;12910;57.690;11.974;2023-04-30T11:37:32;101053.72;;;7.48;100.00
24825;BME280;12910;57.690;11.974;2023-04-30T11:40:00;101076.66;;;7.48;100.00
24825;BME280;12910;57.690;11.974;2023-04-30T11:42:26;101088.66;;;7.51;100.00
24825;BME280;12910;57.690;11.974;2023-04-30T11:44:54;101069.88;;;7.48;100.00
24825;BME280;12910;57.690;11.974;2023-04-30T11:47:19;101069.88;;;7.73;100.00
24825;BME280;12910;57.690;11.974;2023-04-30T11:49:45;101105.09;;;7.59;96.25
24825;BME280;12910;57.690;11.974;2023-04-30T11:52:13;101081.31;;;7.60;96.48
24825;BME280;12910;57.690;11.974;2023-04-30T11:54:39;101075.78;;;7.72;98.50
24825;BME280;12910;57.690;11.974;2023-04-30T11:57:04;101064.75;;;7.48;93.53
24825;BME280;12910;57.690;11.974;2023-04-30T11:59:30;101087.03;;;7.53;97.08
24825;BME280;12910;57.690;11.974;2023-04-30T12:01:56;101078.31;;;7.47;95.62
24825;BME280;12910;57.690;11.974;2023-04-30T12:04:22;101096.81;;;7.42;94.09
24825;BME280;12910;57.690;11.974;2023-04-30T12:06:47;101067.75;;;7.37;96.42
24825;BME280;12910;57.690;11.974;2023-04-30T12:09:13;101085.03;;;7.45;94.80
24825;BME280;12910;57.690;11.974;2023-04-30T12:11:39;101079.41;;;7.54;100.00
24825;BME280;12910;57.690;11.974;2023-04-30T12:14:06;101113.19;;;7.47;100.00
24825;BME280;12910;57.690;11.974;2023-04-30T12:16:51;101092.03;;;7.04;100.00
24825;BME280;12910;57.690;11.974;2023-04-30T12:19:21;101084.13;;;6.98;100.00
24825;BME280;12910;57.690;11.974;2023-04-30T12:21:49;101088.78;;;7.31;100.00
24825;BME280;12910;57.690;11.974;2023-04-30T12:24:16;101096.50;;;7.57;100.00
24825;BME280;12910;57.690;11.974;2023-04-30T12:26:42;101111.47;;;7.47;100.00
24825;BME280;12910;57.690;11.974;2023-04-30T12:29:14;101121.47;;;7.64;100.00
24825;BME280;12910;57.690;11.974;2023-04-30T12:31:40;101111.16;;;7.62;100.00
24825;BME280;12910;57.690;11.974;2023-04-30T12:34:11;101090.84;;;7.64;100.00
24825;BME280;12910;57.690;11.974;2023-04-30T12:36:38;101100.03;;;7.85;100.00
24825;BME280;12910;57.690;11.974;2023-04-30T12:39:14;101112.31;;;7.71;100.00
24825;BME280;12910;57.690;11.974;2023-04-30T12:41:44;101105.91;;;7.58;100.00
24825;BME280;12910;57.690;11.974;2023-04-30T12:44:21;101078.97;;;7.66;100.00
24825;BME280;12910;57.690;11.974;2023-04-30T12:46:48;101099.50;;;7.69;100.00
24825;BME280;12910;57.690;11.974;2023-04-30T12:49:33;101106.72;;;7.81;100.00
24825;BME280;12910;57.690;11.974;2023-04-30T12:52:01;101095.69;;;7.58;100.00